createdAt,value
2018-07-02T00:02:20.636Z,1.50
2018-07-02T00:04:49.009Z,1.50
2018-07-02T00:07:19.856Z,1.43
2018-07-02T00:09:48.614Z,2.17
2018-07-02T00:12:18.283Z,1.70
2018-07-02T00:14:47.472Z,1.67
2018-07-02T00:17:16.385Z,1.57
2018-07-02T00:19:44.695Z,1.60
2018-07-02T00:22:13.681Z,1.80
2018-07-02T00:24:42.187Z,1.30
2018-07-02T00:27:10.667Z,1.53
2018-07-02T00:29:39.064Z,1.60
2018-07-02T00:32:07.601Z,1.57
2018-07-02T00:34:36.238Z,1.50
2018-07-02T00:37:04.625Z,1.80
2018-07-02T00:39:33.053Z,2.03
2018-07-02T00:42:01.429Z,1.53
2018-07-02T00:44:29.845Z,1.23
2018-07-02T00:46:58.237Z,1.30
2018-07-02T00:49:26.630Z,1.83
2018-07-02T00:51:55.060Z,1.50
2018-07-02T00:54:23.431Z,1.30
2018-07-02T00:56:51.906Z,1.50
2018-07-02T00:59:20.323Z,1.50
2018-07-02T01:01:48.664Z,1.50
2018-07-02T01:04:24.773Z,1.60
2018-07-02T01:06:53.474Z,1.50
2018-07-02T01:09:21.852Z,1.53
2018-07-02T01:11:50.387Z,1.80
2018-07-02T01:14:18.857Z,1.80
2018-07-02T01:16:47.542Z,1.57
2018-07-02T01:19:15.987Z,1.70
2018-07-02T01:21:44.342Z,2.50
2018-07-02T01:24:12.739Z,1.43
2018-07-02T01:26:41.122Z,1.73
2018-07-02T01:29:09.478Z,1.57
2018-07-02T01:31:37.956Z,1.63
2018-07-02T01:34:06.339Z,1.10
2018-07-02T01:36:34.757Z,1.37
2018-07-02T01:39:03.264Z,1.40
2018-07-02T01:41:31.601Z,1.50
2018-07-02T01:43:59.959Z,1.70
2018-07-02T01:46:28.369Z,1.67
2018-07-02T01:48:56.709Z,1.63
2018-07-02T01:51:25.037Z,1.40
2018-07-02T01:53:53.452Z,1.73
2018-07-02T01:56:21.956Z,1.50
2018-07-02T01:58:50.474Z,1.40
2018-07-02T02:01:18.825Z,1.40
2018-07-02T02:03:47.176Z,1.50
2018-07-02T02:06:15.501Z,1.47
2018-07-02T02:08:43.849Z,1.53
2018-07-02T02:11:12.321Z,1.30
2018-07-02T02:13:40.646Z,1.27
2018-07-02T02:16:09.030Z,1.60
2018-07-02T02:18:37.532Z,1.60
2018-07-02T02:21:06.119Z,1.67
2018-07-02T02:23:34.516Z,1.33
2018-07-02T02:26:02.854Z,1.40
2018-07-02T02:28:31.268Z,1.53
2018-07-02T02:30:59.819Z,1.60
2018-07-02T02:33:28.375Z,1.40
2018-07-02T02:35:56.928Z,1.57
2018-07-02T02:38:25.438Z,1.60
2018-07-02T02:40:53.915Z,1.20
2018-07-02T02:43:22.204Z,1.43
2018-07-02T02:45:50.522Z,1.40
2018-07-02T02:48:18.889Z,1.30
2018-07-02T02:50:47.355Z,1.20
2018-07-02T02:53:15.917Z,1.60
2018-07-02T02:55:44.277Z,1.50
2018-07-02T02:58:12.559Z,1.17
2018-07-02T03:00:40.939Z,1.33
2018-07-02T03:03:09.287Z,1.60
2018-07-02T03:05:38.091Z,1.60
2018-07-02T03:08:06.438Z,1.40
2018-07-02T03:10:34.868Z,1.67
2018-07-02T03:13:03.215Z,1.57
2018-07-02T03:15:31.577Z,1.23
2018-07-02T03:17:59.890Z,1.70
2018-07-02T03:20:29.119Z,1.20
2018-07-02T03:22:58.288Z,1.30
2018-07-02T03:25:26.712Z,1.40
2018-07-02T03:27:55.877Z,1.43
2018-07-02T03:30:24.248Z,1.50
2018-07-02T03:32:52.577Z,1.10
2018-07-02T03:35:21.109Z,1.33
2018-07-02T03:37:49.511Z,1.10
2018-07-02T03:40:17.958Z,1.47
2018-07-02T03:42:46.350Z,1.20
2018-07-02T03:45:14.702Z,1.70
2018-07-02T03:47:43.046Z,1.40
2018-07-02T03:50:11.399Z,1.73
2018-07-02T03:52:39.756Z,1.50
2018-07-02T03:55:08.102Z,1.43
2018-07-02T03:57:36.742Z,1.47
2018-07-02T04:00:05.106Z,1.70
2018-07-02T04:02:33.474Z,1.23
2018-07-02T04:05:01.831Z,1.20
2018-07-02T04:07:30.313Z,1.50
2018-07-02T04:09:58.995Z,2.00
2018-07-02T04:12:27.372Z,1.40
2018-07-02T04:14:55.720Z,1.70
2018-07-02T04:17:24.148Z,1.47
2018-07-02T04:19:53.074Z,1.90
2018-07-02T04:22:21.493Z,1.60
2018-07-02T04:24:49.930Z,1.40
2018-07-02T04:27:18.345Z,1.30
2018-07-02T04:29:46.874Z,1.20
2018-07-02T04:32:15.257Z,1.17
2018-07-02T04:34:43.544Z,1.40
2018-07-02T04:37:11.896Z,1.40
2018-07-02T04:39:40.234Z,1.60
2018-07-02T04:42:08.549Z,1.70
2018-07-02T04:44:36.906Z,1.20
2018-07-02T04:47:05.661Z,1.37
2018-07-02T04:49:33.961Z,1.60
2018-07-02T04:52:02.263Z,1.60
2018-07-02T04:54:30.722Z,2.10
2018-07-02T04:56:59.244Z,2.27
2018-07-02T04:59:27.686Z,2.30
2018-07-02T05:01:56.252Z,2.30
2018-07-02T05:04:24.640Z,1.80
2018-07-02T05:06:53.208Z,1.73
2018-07-02T05:09:21.643Z,1.70
2018-07-02T05:11:50.029Z,1.73
2018-07-02T05:14:52.010Z,1.80
2018-07-02T05:17:21.797Z,1.83
2018-07-02T05:19:50.230Z,2.70
2018-07-02T05:22:18.641Z,2.57
2018-07-02T05:24:47.042Z,2.47
2018-07-02T05:27:15.464Z,2.20
2018-07-02T05:29:43.972Z,2.40
2018-07-02T05:32:12.479Z,3.27
2018-07-02T05:34:40.810Z,2.03
2018-07-02T05:37:09.101Z,2.70
2018-07-02T05:39:37.610Z,3.23
2018-07-02T05:42:05.989Z,3.80
2018-07-02T05:44:34.287Z,2.27
2018-07-02T05:47:02.849Z,2.47
2018-07-02T05:49:31.267Z,2.70
2018-07-02T05:51:59.585Z,2.50
2018-07-02T05:54:27.878Z,2.00
2018-07-02T05:56:56.176Z,2.30
2018-07-02T05:59:24.514Z,2.20
2018-07-02T06:01:52.865Z,3.13
2018-07-02T06:04:21.363Z,1.80
2018-07-02T06:06:49.755Z,1.40
2018-07-02T06:09:18.136Z,2.33
2018-07-02T06:11:46.558Z,2.03
2018-07-02T06:14:14.954Z,2.17
2018-07-02T06:16:43.367Z,1.80
2018-07-02T06:19:17.604Z,2.33
2018-07-02T06:21:46.439Z,1.80
2018-07-02T06:24:14.909Z,1.83
2018-07-02T06:26:43.295Z,1.97
2018-07-02T06:29:11.838Z,1.63
2018-07-02T06:31:40.181Z,1.30
2018-07-02T06:34:08.705Z,1.53
2018-07-02T06:36:37.217Z,1.60
2018-07-02T06:39:08.461Z,1.93
2018-07-02T06:41:36.805Z,1.73
2018-07-02T06:44:05.272Z,1.50
2018-07-02T06:46:33.814Z,1.87
2018-07-02T06:49:02.535Z,1.80
2018-07-02T06:51:30.875Z,1.40
2018-07-02T06:53:59.153Z,1.93
2018-07-02T06:56:28.283Z,1.20
2018-07-02T06:58:56.639Z,1.37
2018-07-02T07:01:26.274Z,1.63
2018-07-02T07:03:54.616Z,1.43
2018-07-02T07:06:23.231Z,1.93
2018-07-02T07:08:51.636Z,2.80
2018-07-02T07:11:19.993Z,4.70
2018-07-02T07:13:48.562Z,1.50
2018-07-02T07:16:17.159Z,1.47
2018-07-02T07:18:45.578Z,1.40
2018-07-02T07:21:14.022Z,1.20
2018-07-02T07:23:42.337Z,1.10
2018-07-02T07:26:10.702Z,2.03
2018-07-02T07:28:39.049Z,1.30
2018-07-02T07:31:07.482Z,1.53
2018-07-02T07:33:35.982Z,1.57
2018-07-02T07:36:04.336Z,1.30
2018-07-02T07:38:33.069Z,1.10
2018-07-02T07:41:01.513Z,1.57
2018-07-02T07:43:29.807Z,1.47
2018-07-02T07:45:58.223Z,2.03
2018-07-02T07:48:26.524Z,1.40
2018-07-02T07:50:54.887Z,2.00
2018-07-02T07:53:23.426Z,2.23
2018-07-02T07:55:52.022Z,2.20
2018-07-02T07:58:20.493Z,1.60
2018-07-02T08:00:48.827Z,1.67
2018-07-02T08:03:17.196Z,1.43
2018-07-02T08:05:46.310Z,1.53
2018-07-02T08:08:14.695Z,1.53
2018-07-02T08:10:43.065Z,1.37
2018-07-02T08:13:11.418Z,1.77
2018-07-02T08:15:39.820Z,1.50
2018-07-02T08:18:08.259Z,1.20
2018-07-02T08:20:36.594Z,1.13
2018-07-02T08:23:04.972Z,1.60
2018-07-02T08:25:33.412Z,1.63
2018-07-02T08:28:01.852Z,1.60
2018-07-02T08:30:30.306Z,1.30
2018-07-02T08:32:58.661Z,1.00
2018-07-02T08:35:27.065Z,1.40
2018-07-02T08:37:55.713Z,1.30
2018-07-02T08:40:24.138Z,1.40
2018-07-02T08:42:52.434Z,1.50
2018-07-02T08:45:20.964Z,1.23
2018-07-02T08:47:50.169Z,1.70
2018-07-02T08:50:18.686Z,1.63
2018-07-02T08:52:47.040Z,1.37
2018-07-02T08:55:15.500Z,1.53
2018-07-02T08:57:44.113Z,1.37
2018-07-02T09:00:12.415Z,1.80
2018-07-02T09:02:40.874Z,1.67
2018-07-02T09:05:09.381Z,1.20
2018-07-02T09:07:37.656Z,1.60
2018-07-02T09:10:06.633Z,1.50
2018-07-02T09:12:35.951Z,1.10
2018-07-02T09:15:05.101Z,1.17
2018-07-02T09:17:34.150Z,1.63
2018-07-02T09:20:02.398Z,1.30
2018-07-02T09:22:30.765Z,1.13
2018-07-02T09:24:59.058Z,1.23
2018-07-02T09:27:27.433Z,1.43
2018-07-02T09:29:55.908Z,1.50
2018-07-02T09:32:24.284Z,1.30
2018-07-02T09:34:52.696Z,1.27
2018-07-02T09:37:21.330Z,1.30
2018-07-02T09:39:49.703Z,1.87
2018-07-02T09:42:18.078Z,1.20
2018-07-02T09:44:46.484Z,1.40
2018-07-02T09:47:14.805Z,1.50
2018-07-02T09:49:43.420Z,1.80
2018-07-02T09:52:11.904Z,1.90
2018-07-02T09:54:40.215Z,1.77
2018-07-02T09:57:08.514Z,1.93
2018-07-02T09:59:36.815Z,1.73
2018-07-02T10:02:05.198Z,3.97
2018-07-02T10:04:34.000Z,8.03
2018-07-02T10:07:02.426Z,7.10
2018-07-02T10:09:30.807Z,3.43
2018-07-02T10:11:59.184Z,11.10
2018-07-02T10:14:27.750Z,7.67
2018-07-02T10:16:56.166Z,10.40
2018-07-02T10:19:24.473Z,8.87
2018-07-02T10:21:52.845Z,3.33
2018-07-02T10:24:21.172Z,7.37
2018-07-02T10:26:49.542Z,8.10
2018-07-02T10:29:17.849Z,3.40
2018-07-02T10:31:46.194Z,3.97
2018-07-02T10:34:14.552Z,6.93
2018-07-02T10:36:42.878Z,8.80
2018-07-02T10:39:11.208Z,5.37
2018-07-02T10:41:39.849Z,2.47
2018-07-02T10:44:08.349Z,2.10
2018-07-02T10:46:36.698Z,3.60
2018-07-02T10:49:05.116Z,4.30
2018-07-02T10:51:33.430Z,6.00
2018-07-02T10:54:02.060Z,1.83
2018-07-02T10:56:30.376Z,1.77
2018-07-02T10:58:59.091Z,2.10
2018-07-02T11:01:27.499Z,2.30
2018-07-02T11:03:55.889Z,1.57
2018-07-02T11:06:24.241Z,2.43
2018-07-02T11:08:52.562Z,3.97
2018-07-02T11:11:20.905Z,3.17
2018-07-02T11:13:49.212Z,2.23
2018-07-02T11:16:17.461Z,3.50
2018-07-02T11:18:45.910Z,2.60
2018-07-02T11:21:14.241Z,1.80
2018-07-02T11:23:42.748Z,4.30
2018-07-02T11:26:11.090Z,1.60
2018-07-02T11:28:39.587Z,2.03
2018-07-02T11:31:07.904Z,1.43
2018-07-02T11:33:36.346Z,2.00
2018-07-02T11:36:04.780Z,2.00
2018-07-02T11:38:33.070Z,1.43
2018-07-02T11:41:01.384Z,1.20
2018-07-02T11:43:29.693Z,1.30
2018-07-02T11:45:58.836Z,1.47
2018-07-02T11:48:27.217Z,1.53
2018-07-02T11:50:55.524Z,1.90
2018-07-02T11:53:23.945Z,2.00
2018-07-02T11:55:52.244Z,2.20
2018-07-02T11:58:20.838Z,2.50
2018-07-02T12:00:49.233Z,2.23
2018-07-02T12:03:17.563Z,2.23
2018-07-02T12:05:45.890Z,1.47
2018-07-02T12:08:14.216Z,1.23
2018-07-02T12:10:42.629Z,2.00
2018-07-02T12:13:11.528Z,1.90
2018-07-02T12:15:39.903Z,2.07
2018-07-02T12:18:08.293Z,1.20
2018-07-02T12:20:36.661Z,1.10
2018-07-02T12:23:05.029Z,1.30
2018-07-02T12:25:33.354Z,1.70
2018-07-02T12:28:01.714Z,1.20
2018-07-02T12:30:30.094Z,2.13
2018-07-02T12:32:58.571Z,1.23
2018-07-02T12:35:26.879Z,1.10
2018-07-02T12:37:55.593Z,1.07
2018-07-02T12:40:23.858Z,1.10
2018-07-02T12:42:52.151Z,1.13
2018-07-02T12:45:22.533Z,2.07
2018-07-02T12:47:51.599Z,1.73
2018-07-02T12:50:19.886Z,1.00
2018-07-02T12:52:48.271Z,1.20
2018-07-02T12:55:16.594Z,1.10
2018-07-02T12:57:44.837Z,1.00
2018-07-02T13:00:13.128Z,1.60
2018-07-02T13:02:41.477Z,1.13
2018-07-02T13:05:09.798Z,1.10
2018-07-02T13:07:38.195Z,1.10
2018-07-02T13:10:07.275Z,2.07
2018-07-02T13:12:36.807Z,1.30
2018-07-02T13:15:05.680Z,1.43
2018-07-02T13:17:34.023Z,1.20
2018-07-02T13:20:02.402Z,1.00
2018-07-02T13:22:30.781Z,1.57
2018-07-02T13:24:59.048Z,1.00
2018-07-02T13:27:27.337Z,1.50
2018-07-02T13:29:55.795Z,1.10
2018-07-02T13:32:24.253Z,1.20
2018-07-02T13:34:53.024Z,1.20
2018-07-02T13:37:21.277Z,1.20
2018-07-02T13:39:49.736Z,1.77
2018-07-02T13:42:18.071Z,1.20
2018-07-02T13:44:46.356Z,1.20
2018-07-02T13:47:14.689Z,1.20
2018-07-02T13:49:43.002Z,1.17
2018-07-02T13:52:11.497Z,1.50
2018-07-02T13:54:39.874Z,1.10
2018-07-02T13:57:08.293Z,1.43
2018-07-02T13:59:36.621Z,1.20
2018-07-02T14:02:04.986Z,1.20
2018-07-02T14:04:33.323Z,1.30
2018-07-02T14:07:01.648Z,1.60
2018-07-02T14:09:30.209Z,1.00
2018-07-02T14:11:58.482Z,1.40
2018-07-02T14:14:27.825Z,1.50
2018-07-02T14:16:56.146Z,1.50
2018-07-02T14:19:24.459Z,1.50
2018-07-02T14:21:53.033Z,1.50
2018-07-02T14:24:21.396Z,1.10
2018-07-02T14:26:49.724Z,1.60
2018-07-02T14:29:18.069Z,1.33
2018-07-02T14:31:46.647Z,1.17
2018-07-02T14:34:15.066Z,2.03
2018-07-02T14:36:43.521Z,2.00
2018-07-02T14:39:13.183Z,2.13
2018-07-02T14:41:41.694Z,1.20
2018-07-02T14:44:10.119Z,1.43
2018-07-02T14:46:38.516Z,1.60
2018-07-02T14:49:07.038Z,1.30
2018-07-02T14:51:35.330Z,1.30
2018-07-02T14:54:03.677Z,1.27
2018-07-02T14:56:32.193Z,1.23
2018-07-02T14:59:00.537Z,1.90
2018-07-02T15:01:28.909Z,1.80
2018-07-02T15:03:57.451Z,1.20
2018-07-02T15:06:25.740Z,1.50
2018-07-02T15:08:54.136Z,1.63
2018-07-02T15:11:22.483Z,1.83
2018-07-02T15:13:50.837Z,1.70
2018-07-02T15:16:19.333Z,1.77
2018-07-02T15:18:47.620Z,1.90
2018-07-02T15:21:15.937Z,1.60
2018-07-02T15:23:44.255Z,1.47
2018-07-02T15:26:12.719Z,1.73
2018-07-02T15:28:41.043Z,1.80
2018-07-02T15:31:09.399Z,2.20
2018-07-02T15:33:37.795Z,1.97
2018-07-02T15:36:07.193Z,2.00
2018-07-02T15:38:35.548Z,1.70
2018-07-02T15:41:04.003Z,1.60
2018-07-02T15:43:32.526Z,1.80
2018-07-02T15:46:01.002Z,1.60
2018-07-02T15:48:29.344Z,1.80
2018-07-02T15:50:57.680Z,1.90
2018-07-02T15:53:25.984Z,1.60
2018-07-02T15:55:54.353Z,2.30
2018-07-02T15:58:22.713Z,1.83
2018-07-02T16:00:51.240Z,1.30
2018-07-02T16:03:19.455Z,1.73
2018-07-02T16:05:47.998Z,1.43
2018-07-02T16:08:16.384Z,1.50
2018-07-02T16:10:44.806Z,1.30
2018-07-02T16:13:13.138Z,1.70
2018-07-02T16:15:41.564Z,1.40
2018-07-02T16:18:10.071Z,1.50
2018-07-02T16:20:38.372Z,1.60
2018-07-02T16:23:06.958Z,1.50
2018-07-02T16:25:35.300Z,1.40
2018-07-02T16:28:03.620Z,1.50
2018-07-02T16:30:32.104Z,1.60
2018-07-02T16:33:00.542Z,2.00
2018-07-02T16:35:28.851Z,1.50
2018-07-02T16:37:57.159Z,1.60
2018-07-02T16:40:25.553Z,1.40
2018-07-02T16:42:53.838Z,1.60
2018-07-02T16:45:22.164Z,1.60
2018-07-02T16:47:50.598Z,2.07
2018-07-02T16:50:18.969Z,1.47
2018-07-02T16:52:47.277Z,1.40
2018-07-02T16:55:15.689Z,1.70
2018-07-02T16:57:44.022Z,1.53
2018-07-02T17:00:12.411Z,1.40
2018-07-02T17:02:40.745Z,1.40
2018-07-02T17:05:09.260Z,1.30
2018-07-02T17:07:37.656Z,1.10
2018-07-02T17:10:06.297Z,1.30
2018-07-02T17:12:35.222Z,1.30
2018-07-02T17:15:03.542Z,1.10
2018-07-02T17:17:31.924Z,1.30
2018-07-02T17:20:00.488Z,1.47
2018-07-02T17:22:29.102Z,1.30
2018-07-02T17:24:57.414Z,1.20
2018-07-02T17:27:25.985Z,1.30
2018-07-02T17:29:54.402Z,1.10
2018-07-02T17:32:23.074Z,1.33
2018-07-02T17:34:51.529Z,1.17
2018-07-02T17:37:20.001Z,1.40
2018-07-02T17:39:48.311Z,1.10
2018-07-02T17:42:16.641Z,1.10
2018-07-02T17:44:44.999Z,1.10
2018-07-02T17:47:13.314Z,1.10
2018-07-02T17:49:41.894Z,1.37
2018-07-02T17:52:10.533Z,0.90
2018-07-02T17:54:38.841Z,1.80
2018-07-02T17:57:07.276Z,1.00
2018-07-02T17:59:35.741Z,1.50
2018-07-02T18:02:04.336Z,1.00
2018-07-02T18:04:32.642Z,0.90
2018-07-02T18:07:01.067Z,1.03
2018-07-02T18:09:29.560Z,1.20
2018-07-02T18:11:57.922Z,0.90
2018-07-02T18:14:26.470Z,1.27
2018-07-02T18:16:55.012Z,1.20
2018-07-02T18:19:23.560Z,3.40
2018-07-02T18:21:52.382Z,1.27
2018-07-02T18:24:21.814Z,1.80
2018-07-02T18:26:50.226Z,1.43
2018-07-02T18:29:18.750Z,1.73
2018-07-02T18:31:47.310Z,1.97
2018-07-02T18:34:16.724Z,2.00
2018-07-02T18:36:45.070Z,1.40
2018-07-02T18:39:14.589Z,1.50
2018-07-02T18:41:43.205Z,3.00
2018-07-02T18:44:11.526Z,2.53
2018-07-02T18:46:39.957Z,2.20
2018-07-02T18:49:08.357Z,2.63
2018-07-02T18:51:36.744Z,2.40
2018-07-02T18:54:05.236Z,2.20
2018-07-02T18:56:33.543Z,2.03
2018-07-02T18:59:02.140Z,1.87
2018-07-02T19:01:30.566Z,2.00
2018-07-02T19:03:58.888Z,1.83
2018-07-02T19:06:27.815Z,2.13
2018-07-02T19:08:58.270Z,2.77
2018-07-02T19:11:26.616Z,1.70
2018-07-02T19:13:54.947Z,2.00
2018-07-02T19:16:23.461Z,1.77
2018-07-02T19:18:53.060Z,1.80
2018-07-02T19:21:22.828Z,1.90
2018-07-02T19:23:51.363Z,1.70
2018-07-02T19:26:22.733Z,1.50
2018-07-02T19:28:52.409Z,1.60
2018-07-02T19:31:20.921Z,2.00
2018-07-02T19:33:49.378Z,1.77
2018-07-02T19:36:17.819Z,1.63
2018-07-02T19:38:46.261Z,1.50
2018-07-02T19:41:15.664Z,1.60
2018-07-02T19:43:44.730Z,1.60
2018-07-02T19:46:14.949Z,1.87
2018-07-02T19:48:44.929Z,1.77
2018-07-02T19:51:13.355Z,1.73
2018-07-02T19:53:41.961Z,1.53
2018-07-02T19:56:11.230Z,1.30
2018-07-02T19:58:41.790Z,1.47
2018-07-02T20:01:10.207Z,1.20
2018-07-02T20:03:38.727Z,2.20
2018-07-02T20:06:07.260Z,1.90
2018-07-02T20:08:35.543Z,1.90
2018-07-02T20:11:03.838Z,1.93
2018-07-02T20:13:32.355Z,2.07
2018-07-02T20:16:00.615Z,1.40
2018-07-02T20:18:29.511Z,1.57
2018-07-02T20:20:57.984Z,1.93
2018-07-02T20:23:26.316Z,2.87
2018-07-02T20:25:55.790Z,2.30
2018-07-02T20:28:24.250Z,2.27
2018-07-02T20:30:52.569Z,2.33
2018-07-02T20:33:20.978Z,1.90
2018-07-02T20:35:49.540Z,2.10
2018-07-02T20:38:17.917Z,2.00
2018-07-02T20:40:48.393Z,1.93
2018-07-02T20:43:17.663Z,1.40
2018-07-02T20:46:48.882Z,1.60
2018-07-02T20:49:17.464Z,1.50
2018-07-02T20:51:47.089Z,1.87
2018-07-02T20:54:21.610Z,1.57
2018-07-02T20:56:50.658Z,1.50
2018-07-02T20:59:20.860Z,1.13
2018-07-02T21:01:49.963Z,2.00
2018-07-02T21:04:19.665Z,1.90
2018-07-02T21:06:48.071Z,2.10
2018-07-02T21:09:30.712Z,1.90
2018-07-02T21:11:59.178Z,2.10
2018-07-02T21:14:27.587Z,1.90
2018-07-02T21:16:56.059Z,1.90
2018-07-02T21:19:24.767Z,2.00
2018-07-02T21:21:56.088Z,1.70
2018-07-02T21:24:24.564Z,1.97
2018-07-02T21:26:53.125Z,1.50
2018-07-02T21:29:21.503Z,1.67
2018-07-02T21:31:51.928Z,2.00
2018-07-02T21:34:22.021Z,1.70
2018-07-02T21:36:51.103Z,1.67
2018-07-02T21:39:20.773Z,1.40
2018-07-02T21:41:49.158Z,1.73
2018-07-02T21:44:17.470Z,2.23
2018-07-02T21:46:45.773Z,1.90
2018-07-02T21:49:14.199Z,1.70
2018-07-02T21:51:43.577Z,1.60
2018-07-02T21:54:12.717Z,1.70
2018-07-02T21:56:41.085Z,2.50
2018-07-02T21:59:10.228Z,3.07
2018-07-02T22:01:39.536Z,2.10
2018-07-02T22:04:07.952Z,1.70
2018-07-02T22:06:36.924Z,1.47
2018-07-02T22:09:08.743Z,1.53
2018-07-02T22:11:37.112Z,1.60
2018-07-02T22:14:05.775Z,1.57
2018-07-02T22:16:36.961Z,1.77
2018-07-02T22:19:06.638Z,1.97
2018-07-02T22:21:35.709Z,1.40
2018-07-02T22:24:07.021Z,1.60
2018-07-02T22:26:37.413Z,1.97
2018-07-02T22:29:06.365Z,1.87
2018-07-02T22:31:34.672Z,1.77
2018-07-02T22:34:03.189Z,1.40
2018-07-02T22:36:31.535Z,1.77
2018-07-02T22:38:59.948Z,2.00
2018-07-02T22:41:28.904Z,2.70
2018-07-02T22:43:57.648Z,1.70
2018-07-02T22:46:26.217Z,2.00
2018-07-02T22:48:54.548Z,1.50
2018-07-02T22:51:23.146Z,1.90
2018-07-02T22:53:51.505Z,1.63
2018-07-02T22:56:19.959Z,2.03
2018-07-02T22:58:48.243Z,1.43
2018-07-02T23:01:16.961Z,1.53
2018-07-02T23:03:45.278Z,1.50
2018-07-02T23:06:13.797Z,1.83
2018-07-02T23:08:42.276Z,1.63
2018-07-02T23:11:10.566Z,2.10
2018-07-02T23:13:38.867Z,2.00
2018-07-02T23:16:07.555Z,1.80
2018-07-02T23:18:35.925Z,1.60
2018-07-02T23:21:04.209Z,1.77
2018-07-02T23:23:32.551Z,1.97
2018-07-02T23:26:00.979Z,1.57
2018-07-02T23:28:29.289Z,1.53
2018-07-02T23:30:57.604Z,1.70
2018-07-02T23:33:25.966Z,2.10
2018-07-02T23:35:54.243Z,2.03
2018-07-02T23:38:22.657Z,2.10
2018-07-02T23:40:50.945Z,1.80
2018-07-02T23:43:19.442Z,1.90
2018-07-02T23:45:47.765Z,2.20
2018-07-02T23:48:16.147Z,2.07
2018-07-02T23:50:44.585Z,1.50
2018-07-02T23:53:13.075Z,1.83
2018-07-02T23:55:41.439Z,1.83
2018-07-02T23:58:09.909Z,1.67
